sensor_id;sensor_type;location;lat;lon;timestamp;P1;durP1;ratioP1;P2;durP2;ratioP2
33579;SDS011;19909;43.644;-79.438;2023-04-25T00:00:29;0.85;;;0.40;;
33579;SDS011;19909;43.644;-79.438;2023-04-25T00:02:55;0.45;;;0.20;;
33579;SDS011;19909;43.644;-79.438;2023-04-25T00:05:22;0.28;;;0.20;;
33579;SDS011;19909;43.644;-79.438;2023-04-25T00:07:49;0.73;;;0.20;;
33579;SDS011;19909;43.644;-79.438;2023-04-25T00:10:15;0.85;;;0.25;;
33579;SDS011;19909;43.644;-79.438;2023-04-25T00:12:41;0.35;;;0.10;;
33579;SDS011;19909;43.644;-79.438;2023-04-25T00:15:08;0.15;;;0.10;;
33579;SDS011;19909;43.644;-79.438;2023-04-25T00:17:34;0.28;;;0.10;;
33579;SDS011;19909;43.644;-79.438;2023-04-25T00:20:03;0.20;;;0.20;;
33579;SDS011;19909;43.644;-79.438;2023-04-25T00:22:32;0.40;;;0.25;;
33579;SDS011;19909;43.644;-79.438;2023-04-25T00:24:59;0.40;;;0.20;;
33579;SDS011;19909;43.644;-79.438;2023-04-25T00:27:26;0.32;;;0.10;;
33579;SDS011;19909;43.644;-79.438;2023-04-25T00:29:52;0.25;;;0.10;;
33579;SDS011;19909;43.644;-79.438;2023-04-25T00:32:18;0.20;;;0.15;;
33579;SDS011;19909;43.644;-79.438;2023-04-25T00:34:44;0.30;;;0.20;;
33579;SDS011;19909;43.644;-79.438;2023-04-25T00:37:10;0.28;;;0.13;;
33579;SDS011;19909;43.644;-79.438;2023-04-25T00:39:37;0.20;;;0.20;;
33579;SDS011;19909;43.644;-79.438;2023-04-25T00:42:04;0.10;;;0.10;;
33579;SDS011;19909;43.644;-79.438;2023-04-25T00:44:31;0.20;;;0.20;;
33579;SDS011;19909;43.644;-79.438;2023-04-25T00:46:57;0.65;;;0.32;;
33579;SDS011;19909;43.644;-79.438;2023-04-25T00:49:24;0.68;;;0.20;;
33579;SDS011;19909;43.644;-79.438;2023-04-25T00:51:50;1.25;;;0.30;;
33579;SDS011;19909;43.644;-79.438;2023-04-25T00:54:16;0.30;;;0.15;;
33579;SDS011;19909;43.644;-79.438;2023-04-25T00:56:43;0.40;;;0.20;;
33579;SDS011;19909;43.644;-79.438;2023-04-25T00:59:10;0.38;;;0.20;;
33579;SDS011;19909;43.644;-79.438;2023-04-25T01:01:36;0.32;;;0.20;;
33579;SDS011;19909;43.644;-79.438;2023-04-25T01:04:04;0.20;;;0.10;;
33579;SDS011;19909;43.644;-79.438;2023-04-25T01:06:30;0.38;;;0.20;;
33579;SDS011;19909;43.644;-79.438;2023-04-25T01:08:57;0.45;;;0.10;;
33579;SDS011;19909;43.644;-79.438;2023-04-25T01:11:24;0.10;;;0.10;;
33579;SDS011;19909;43.644;-79.438;2023-04-25T01:13:51;0.30;;;0.13;;
33579;SDS011;19909;43.644;-79.438;2023-04-25T01:16:17;0.57;;;0.10;;
33579;SDS011;19909;43.644;-79.438;2023-04-25T01:18:45;0.20;;;0.10;;
33579;SDS011;19909;43.644;-79.438;2023-04-25T01:21:12;0.47;;;0.20;;
33579;SDS011;19909;43.644;-79.438;2023-04-25T01:23:39;0.20;;;0.15;;
33579;SDS011;19909;43.644;-79.438;2023-04-25T01:26:10;0.50;;;0.22;;
33579;SDS011;19909;43.644;-79.438;2023-04-25T01:28:37;0.55;;;0.28;;
33579;SDS011;19909;43.644;-79.438;2023-04-25T01:31:06;0.40;;;0.10;;
33579;SDS011;19909;43.644;-79.438;2023-04-25T01:33:33;0.25;;;0.10;;
33579;SDS011;19909;43.644;-79.438;2023-04-25T01:35:59;0.20;;;0.10;;
33579;SDS011;19909;43.644;-79.438;2023-04-25T01:38:25;0.20;;;0.15;;
33579;SDS011;19909;43.644;-79.438;2023-04-25T01:40:52;0.40;;;0.30;;
33579;SDS011;19909;43.644;-79.438;2023-04-25T01:43:20;0.20;;;0.10;;
33579;SDS011;19909;43.644;-79.438;2023-04-25T01:45:46;0.50;;;0.40;;
33579;SDS011;19909;43.644;-79.438;2023-04-25T01:48:14;0.30;;;0.20;;
33579;SDS011;19909;43.644;-79.438;2023-04-25T01:50:41;0.35;;;0.17;;
33579;SDS011;19909;43.644;-79.438;2023-04-25T01:53:08;0.80;;;0.30;;
33579;SDS011;19909;43.644;-79.438;2023-04-25T01:55:36;0.47;;;0.28;;
33579;SDS011;19909;43.644;-79.438;2023-04-25T01:58:02;0.88;;;0.40;;
33579;SDS011;19909;43.644;-79.438;2023-04-25T02:00:34;0.68;;;0.30;;
33579;SDS011;19909;43.644;-79.438;2023-04-25T02:03:04;0.50;;;0.30;;
33579;SDS011;19909;43.644;-79.438;2023-04-25T02:05:34;0.50;;;0.28;;
33579;SDS011;19909;43.644;-79.438;2023-04-25T02:08:02;0.90;;;0.30;;
33579;SDS011;19909;43.644;-79.438;2023-04-25T02:10:30;0.85;;;0.30;;
33579;SDS011;19909;43.644;-79.438;2023-04-25T02:12:57;0.50;;;0.30;;
33579;SDS011;19909;43.644;-79.438;2023-04-25T02:15:23;0.40;;;0.20;;
33579;SDS011;19909;43.644;-79.438;2023-04-25T02:17:49;0.90;;;0.30;;
33579;SDS011;19909;43.644;-79.438;2023-04-25T02:20:18;0.95;;;0.30;;
33579;SDS011;19909;43.644;-79.438;2023-04-25T02:22:46;0.40;;;0.30;;
33579;SDS011;19909;43.644;-79.438;2023-04-25T02:25:12;0.30;;;0.20;;
33579;SDS011;19909;43.644;-79.438;2023-04-25T02:27:39;0.85;;;0.40;;
33579;SDS011;19909;43.644;-79.438;2023-04-25T02:30:05;0.47;;;0.20;;
33579;SDS011;19909;43.644;-79.438;2023-04-25T02:32:32;0.70;;;0.40;;
33579;SDS011;19909;43.644;-79.438;2023-04-25T02:34:59;0.73;;;0.30;;
33579;SDS011;19909;43.644;-79.438;2023-04-25T02:37:32;0.52;;;0.32;;
33579;SDS011;19909;43.644;-79.438;2023-04-25T02:39:59;0.40;;;0.20;;
33579;SDS011;19909;43.644;-79.438;2023-04-25T02:42:26;0.82;;;0.30;;
33579;SDS011;19909;43.644;-79.438;2023-04-25T02:44:52;0.80;;;0.40;;
33579;SDS011;19909;43.644;-79.438;2023-04-25T02:47:18;0.57;;;0.50;;
33579;SDS011;19909;43.644;-79.438;2023-04-25T02:49:45;0.45;;;0.35;;
33579;SDS011;19909;43.644;-79.438;2023-04-25T02:52:11;0.38;;;0.25;;
33579;SDS011;19909;43.644;-79.438;2023-04-25T02:54:38;0.20;;;0.17;;
33579;SDS011;19909;43.644;-79.438;2023-04-25T02:57:05;0.47;;;0.30;;
33579;SDS011;19909;43.644;-79.438;2023-04-25T02:59:31;0.75;;;0.30;;
33579;SDS011;19909;43.644;-79.438;2023-04-25T03:01:58;0.68;;;0.25;;
33579;SDS011;19909;43.644;-79.438;2023-04-25T03:04:24;0.20;;;0.10;;
33579;SDS011;19909;43.644;-79.438;2023-04-25T03:06:50;0.50;;;0.40;;
33579;SDS011;19909;43.644;-79.438;2023-04-25T03:09:17;0.28;;;0.10;;
33579;SDS011;19909;43.644;-79.438;2023-04-25T03:11:43;0.95;;;0.22;;
33579;SDS011;19909;43.644;-79.438;2023-04-25T03:14:10;0.65;;;0.20;;
33579;SDS011;19909;43.644;-79.438;2023-04-25T03:16:37;0.30;;;0.20;;
33579;SDS011;19909;43.644;-79.438;2023-04-25T03:19:04;0.45;;;0.30;;
33579;SDS011;19909;43.644;-79.438;2023-04-25T03:21:31;0.82;;;0.30;;
33579;SDS011;19909;43.644;-79.438;2023-04-25T03:24:00;0.40;;;0.30;;
33579;SDS011;19909;43.644;-79.438;2023-04-25T03:26:27;0.55;;;0.35;;
33579;SDS011;19909;43.644;-79.438;2023-04-25T03:28:53;0.52;;;0.30;;
33579;SDS011;19909;43.644;-79.438;2023-04-25T03:31:19;0.82;;;0.40;;
33579;SDS011;19909;43.644;-79.438;2023-04-25T03:33:46;1.00;;;0.38;;
33579;SDS011;19909;43.644;-79.438;2023-04-25T03:36:12;0.60;;;0.22;;
33579;SDS011;19909;43.644;-79.438;2023-04-25T03:38:42;0.30;;;0.20;;
33579;SDS011;19909;43.644;-79.438;2023-04-25T03:41:08;0.25;;;0.15;;
33579;SDS011;19909;43.644;-79.438;2023-04-25T03:43:37;0.52;;;0.20;;
33579;SDS011;19909;43.644;-79.438;2023-04-25T03:46:04;0.30;;;0.20;;
33579;SDS011;19909;43.644;-79.438;2023-04-25T03:48:31;0.45;;;0.30;;
33579;SDS011;19909;43.644;-79.438;2023-04-25T03:50:58;0.47;;;0.30;;
33579;SDS011;19909;43.644;-79.438;2023-04-25T03:53:24;0.68;;;0.25;;
33579;SDS011;19909;43.644;-79.438;2023-04-25T03:55:51;0.75;;;0.30;;
33579;SDS011;19909;43.644;-79.438;2023-04-25T03:58:17;0.60;;;0.40;;
33579;SDS011;19909;43.644;-79.438;2023-04-25T04:03:18;0.50;;;0.30;;
33579;SDS011;19909;43.644;-79.438;2023-04-25T04:05:47;0.38;;;0.10;;
33579;SDS011;19909;43.644;-79.438;2023-04-25T04:08:15;0.52;;;0.40;;
33579;SDS011;19909;43.644;-79.438;2023-04-25T04:10:41;0.30;;;0.25;;
33579;SDS011;19909;43.644;-79.438;2023-04-25T04:13:08;0.60;;;0.30;;
33579;SDS011;19909;43.644;-79.438;2023-04-25T04:15:34;1.10;;;0.22;;
33579;SDS011;19909;43.644;-79.438;2023-04-25T04:18:00;0.50;;;0.30;;
33579;SDS011;19909;43.644;-79.438;2023-04-25T04:20:29;0.60;;;0.28;;
33579;SDS011;19909;43.644;-79.438;2023-04-25T04:22:55;0.32;;;0.20;;
33579;SDS011;19909;43.644;-79.438;2023-04-25T04:25:21;0.95;;;0.30;;
33579;SDS011;19909;43.644;-79.438;2023-04-25T04:27:49;1.15;;;0.30;;
33579;SDS011;19909;43.644;-79.438;2023-04-25T04:30:21;0.50;;;0.30;;
33579;SDS011;19909;43.644;-79.438;2023-04-25T04:32:50;0.47;;;0.30;;
33579;SDS011;19909;43.644;-79.438;2023-04-25T04:35:17;0.57;;;0.20;;
33579;SDS011;19909;43.644;-79.438;2023-04-25T04:37:43;1.10;;;0.22;;
33579;SDS011;19909;43.644;-79.438;2023-04-25T04:40:10;0.30;;;0.20;;
33579;SDS011;19909;43.644;-79.438;2023-04-25T04:42:37;0.20;;;0.20;;
33579;SDS011;19909;43.644;-79.438;2023-04-25T04:45:03;0.38;;;0.20;;
33579;SDS011;19909;43.644;-79.438;2023-04-25T04:47:29;0.52;;;0.30;;
33579;SDS011;19909;43.644;-79.438;2023-04-25T04:49:57;0.20;;;0.20;;
33579;SDS011;19909;43.644;-79.438;2023-04-25T04:52:23;0.55;;;0.25;;
33579;SDS011;19909;43.644;-79.438;2023-04-25T04:54:49;0.40;;;0.32;;
33579;SDS011;19909;43.644;-79.438;2023-04-25T04:57:16;0.93;;;0.20;;
33579;SDS011;19909;43.644;-79.438;2023-04-25T04:59:42;0.93;;;0.28;;
33579;SDS011;19909;43.644;-79.438;2023-04-25T05:02:08;0.50;;;0.30;;
33579;SDS011;19909;43.644;-79.438;2023-04-25T05:04:35;0.40;;;0.20;;
33579;SDS011;19909;43.644;-79.438;2023-04-25T05:07:01;0.47;;;0.30;;
33579;SDS011;19909;43.644;-79.438;2023-04-25T05:09:27;0.77;;;0.20;;
33579;SDS011;19909;43.644;-79.438;2023-04-25T05:11:53;0.43;;;0.30;;
33579;SDS011;19909;43.644;-79.438;2023-04-25T05:14:20;0.32;;;0.30;;
33579;SDS011;19909;43.644;-79.438;2023-04-25T05:16:47;0.20;;;0.20;;
33579;SDS011;19909;43.644;-79.438;2023-04-25T05:19:14;0.30;;;0.25;;
33579;SDS011;19909;43.644;-79.438;2023-04-25T05:21:40;0.20;;;0.20;;
33579;SDS011;19909;43.644;-79.438;2023-04-25T05:24:08;0.30;;;0.25;;
33579;SDS011;19909;43.644;-79.438;2023-04-25T05:26:34;0.70;;;0.30;;
33579;SDS011;19909;43.644;-79.438;2023-04-25T05:29:00;0.50;;;0.30;;
33579;SDS011;19909;43.644;-79.438;2023-04-25T05:31:26;0.52;;;0.30;;
33579;SDS011;19909;43.644;-79.438;2023-04-25T05:33:53;0.63;;;0.28;;
33579;SDS011;19909;43.644;-79.438;2023-04-25T05:36:19;0.32;;;0.20;;
33579;SDS011;19909;43.644;-79.438;2023-04-25T05:38:45;0.50;;;0.20;;
33579;SDS011;19909;43.644;-79.438;2023-04-25T05:41:12;0.50;;;0.30;;
33579;SDS011;19909;43.644;-79.438;2023-04-25T05:43:38;0.70;;;0.35;;
33579;SDS011;19909;43.644;-79.438;2023-04-25T05:46:04;0.43;;;0.22;;
33579;SDS011;19909;43.644;-79.438;2023-04-25T05:48:31;0.95;;;0.30;;
33579;SDS011;19909;43.644;-79.438;2023-04-25T05:50:57;1.10;;;0.35;;
33579;SDS011;19909;43.644;-79.438;2023-04-25T05:53:23;1.30;;;0.40;;
33579;SDS011;19909;43.644;-79.438;2023-04-25T05:55:49;0.85;;;0.20;;
33579;SDS011;19909;43.644;-79.438;2023-04-25T05:58:15;0.45;;;0.30;;
33579;SDS011;19909;43.644;-79.438;2023-04-25T06:00:41;0.50;;;0.20;;
33579;SDS011;19909;43.644;-79.438;2023-04-25T06:03:08;0.20;;;0.13;;
33579;SDS011;19909;43.644;-79.438;2023-04-25T06:05:38;0.30;;;0.20;;
33579;SDS011;19909;43.644;-79.438;2023-04-25T06:08:04;0.22;;;0.20;;
33579;SDS011;19909;43.644;-79.438;2023-04-25T06:10:31;0.88;;;0.20;;
33579;SDS011;19909;43.644;-79.438;2023-04-25T06:12:57;0.50;;;0.25;;
33579;SDS011;19909;43.644;-79.438;2023-04-25T06:15:23;0.52;;;0.30;;
33579;SDS011;19909;43.644;-79.438;2023-04-25T06:17:49;0.35;;;0.25;;
33579;SDS011;19909;43.644;-79.438;2023-04-25T06:20:15;0.35;;;0.20;;
33579;SDS011;19909;43.644;-79.438;2023-04-25T06:22:41;0.40;;;0.30;;
33579;SDS011;19909;43.644;-79.438;2023-04-25T06:25:08;0.40;;;0.30;;
33579;SDS011;19909;43.644;-79.438;2023-04-25T06:27:34;0.55;;;0.20;;
33579;SDS011;19909;43.644;-79.438;2023-04-25T06:30:00;0.43;;;0.20;;
33579;SDS011;19909;43.644;-79.438;2023-04-25T06:32:26;0.60;;;0.40;;
33579;SDS011;19909;43.644;-79.438;2023-04-25T06:34:55;0.55;;;0.30;;
33579;SDS011;19909;43.644;-79.438;2023-04-25T06:37:21;0.75;;;0.30;;
33579;SDS011;19909;43.644;-79.438;2023-04-25T06:39:47;0.30;;;0.20;;
33579;SDS011;19909;43.644;-79.438;2023-04-25T06:42:14;0.30;;;0.30;;
33579;SDS011;19909;43.644;-79.438;2023-04-25T06:44:40;0.73;;;0.20;;
33579;SDS011;19909;43.644;-79.438;2023-04-25T06:47:06;0.38;;;0.20;;
33579;SDS011;19909;43.644;-79.438;2023-04-25T06:49:32;0.82;;;0.30;;
33579;SDS011;19909;43.644;-79.438;2023-04-25T06:51:58;0.65;;;0.22;;
33579;SDS011;19909;43.644;-79.438;2023-04-25T06:54:25;0.22;;;0.20;;
33579;SDS011;19909;43.644;-79.438;2023-04-25T06:56:52;1.55;;;0.43;;
33579;SDS011;19909;43.644;-79.438;2023-04-25T06:59:19;1.88;;;0.52;;
33579;SDS011;19909;43.644;-79.438;2023-04-25T07:01:45;0.52;;;0.30;;
33579;SDS011;19909;43.644;-79.438;2023-04-25T07:04:11;0.52;;;0.25;;
33579;SDS011;19909;43.644;-79.438;2023-04-25T07:06:37;0.52;;;0.38;;
33579;SDS011;19909;43.644;-79.438;2023-04-25T07:09:08;0.50;;;0.30;;
33579;SDS011;19909;43.644;-79.438;2023-04-25T07:11:38;1.58;;;0.40;;
33579;SDS011;19909;43.644;-79.438;2023-04-25T07:14:06;0.40;;;0.30;;
33579;SDS011;19909;43.644;-79.438;2023-04-25T07:16:33;0.52;;;0.30;;
33579;SDS011;19909;43.644;-79.438;2023-04-25T07:18:59;0.50;;;0.40;;
33579;SDS011;19909;43.644;-79.438;2023-04-25T07:21:25;0.22;;;0.20;;
33579;SDS011;19909;43.644;-79.438;2023-04-25T07:23:51;1.23;;;0.22;;
33579;SDS011;19909;43.644;-79.438;2023-04-25T07:26:18;1.77;;;0.38;;
33579;SDS011;19909;43.644;-79.438;2023-04-25T07:28:45;0.30;;;0.30;;
33579;SDS011;19909;43.644;-79.438;2023-04-25T07:31:14;0.65;;;0.40;;
33579;SDS011;19909;43.644;-79.438;2023-04-25T07:33:43;0.75;;;0.40;;
33579;SDS011;19909;43.644;-79.438;2023-04-25T07:36:12;0.50;;;0.30;;
33579;SDS011;19909;43.644;-79.438;2023-04-25T07:38:40;0.20;;;0.17;;
33579;SDS011;19909;43.644;-79.438;2023-04-25T07:41:06;0.73;;;0.35;;
33579;SDS011;19909;43.644;-79.438;2023-04-25T07:43:33;0.68;;;0.30;;
33579;SDS011;19909;43.644;-79.438;2023-04-25T07:45:59;0.52;;;0.40;;
33579;SDS011;19909;43.644;-79.438;2023-04-25T07:48:25;0.80;;;0.50;;
33579;SDS011;19909;43.644;-79.438;2023-04-25T07:50:51;0.98;;;0.30;;
33579;SDS011;19909;43.644;-79.438;2023-04-25T07:53:18;0.35;;;0.20;;
33579;SDS011;19909;43.644;-79.438;2023-04-25T07:55:44;0.47;;;0.40;;
33579;SDS011;19909;43.644;-79.438;2023-04-25T07:58:11;0.35;;;0.30;;
33579;SDS011;19909;43.644;-79.438;2023-04-25T08:00:37;0.50;;;0.40;;
33579;SDS011;19909;43.644;-79.438;2023-04-25T08:03:03;1.48;;;0.40;;
33579;SDS011;19909;43.644;-79.438;2023-04-25T08:05:30;0.47;;;0.32;;
33579;SDS011;19909;43.644;-79.438;2023-04-25T08:07:56;0.30;;;0.30;;
33579;SDS011;19909;43.644;-79.438;2023-04-25T08:10:22;0.40;;;0.40;;
33579;SDS011;19909;43.644;-79.438;2023-04-25T08:12:48;0.30;;;0.30;;
33579;SDS011;19909;43.644;-79.438;2023-04-25T08:15:15;1.20;;;0.50;;
33579;SDS011;19909;43.644;-79.438;2023-04-25T08:17:41;0.20;;;0.20;;
33579;SDS011;19909;43.644;-79.438;2023-04-25T08:20:09;0.88;;;0.40;;
33579;SDS011;19909;43.644;-79.438;2023-04-25T08:22:36;0.57;;;0.40;;
33579;SDS011;19909;43.644;-79.438;2023-04-25T08:25:02;1.27;;;0.50;;
33579;SDS011;19909;43.644;-79.438;2023-04-25T08:27:29;0.85;;;0.60;;
33579;SDS011;19909;43.644;-79.438;2023-04-25T08:29:55;0.45;;;0.45;;
33579;SDS011;19909;43.644;-79.438;2023-04-25T08:32:23;0.35;;;0.35;;
33579;SDS011;19909;43.644;-79.438;2023-04-25T08:34:49;0.70;;;0.60;;
33579;SDS011;19909;43.644;-79.438;2023-04-25T08:37:16;0.50;;;0.50;;
33579;SDS011;19909;43.644;-79.438;2023-04-25T08:39:44;0.28;;;0.20;;
33579;SDS011;19909;43.644;-79.438;2023-04-25T08:42:12;0.43;;;0.40;;
33579;SDS011;19909;43.644;-79.438;2023-04-25T08:44:39;1.10;;;0.47;;
33579;SDS011;19909;43.644;-79.438;2023-04-25T08:47:05;0.40;;;0.38;;
33579;SDS011;19909;43.644;-79.438;2023-04-25T08:49:32;1.33;;;0.40;;
33579;SDS011;19909;43.644;-79.438;2023-04-25T08:52:00;0.40;;;0.30;;
33579;SDS011;19909;43.644;-79.438;2023-04-25T08:54:29;0.57;;;0.40;;
33579;SDS011;19909;43.644;-79.438;2023-04-25T08:56:57;1.05;;;0.43;;
33579;SDS011;19909;43.644;-79.438;2023-04-25T08:59:27;0.40;;;0.38;;
33579;SDS011;19909;43.644;-79.438;2023-04-25T09:01:55;0.90;;;0.55;;
33579;SDS011;19909;43.644;-79.438;2023-04-25T09:04:21;0.68;;;0.52;;
33579;SDS011;19909;43.644;-79.438;2023-04-25T09:06:47;0.57;;;0.40;;
33579;SDS011;19909;43.644;-79.438;2023-04-25T09:09:14;0.95;;;0.40;;
33579;SDS011;19909;43.644;-79.438;2023-04-25T09:11:40;0.43;;;0.43;;
33579;SDS011;19909;43.644;-79.438;2023-04-25T09:14:10;0.73;;;0.40;;
33579;SDS011;19909;43.644;-79.438;2023-04-25T09:19:23;0.50;;;0.40;;
33579;SDS011;19909;43.644;-79.438;2023-04-25T09:21:54;0.40;;;0.25;;
33579;SDS011;19909;43.644;-79.438;2023-04-25T09:24:35;0.60;;;0.40;;
33579;SDS011;19909;43.644;-79.438;2023-04-25T09:27:04;0.63;;;0.47;;
33579;SDS011;19909;43.644;-79.438;2023-04-25T09:29:32;0.75;;;0.40;;
33579;SDS011;19909;43.644;-79.438;2023-04-25T09:34:41;0.40;;;0.30;;
33579;SDS011;19909;43.644;-79.438;2023-04-25T09:37:09;1.40;;;0.60;;
33579;SDS011;19909;43.644;-79.438;2023-04-25T09:39:39;0.88;;;0.50;;
33579;SDS011;19909;43.644;-79.438;2023-04-25T09:42:05;0.70;;;0.30;;
33579;SDS011;19909;43.644;-79.438;2023-04-25T09:44:35;0.60;;;0.50;;
33579;SDS011;19909;43.644;-79.438;2023-04-25T09:47:01;0.60;;;0.50;;
33579;SDS011;19909;43.644;-79.438;2023-04-25T09:49:27;0.55;;;0.55;;
33579;SDS011;19909;43.644;-79.438;2023-04-25T09:51:57;0.85;;;0.60;;
33579;SDS011;19909;43.644;-79.438;2023-04-25T09:54:24;0.43;;;0.43;;
33579;SDS011;19909;43.644;-79.438;2023-04-25T09:56:51;0.82;;;0.60;;
33579;SDS011;19909;43.644;-79.438;2023-04-25T09:59:21;1.17;;;0.77;;
33579;SDS011;19909;43.644;-79.438;2023-04-25T10:01:49;1.00;;;0.70;;
33579;SDS011;19909;43.644;-79.438;2023-04-25T10:04:19;0.55;;;0.40;;
33579;SDS011;19909;43.644;-79.438;2023-04-25T10:06:51;0.47;;;0.45;;
33579;SDS011;19909;43.644;-79.438;2023-04-25T10:09:20;1.02;;;0.70;;
33579;SDS011;19909;43.644;-79.438;2023-04-25T10:11:51;0.70;;;0.47;;
33579;SDS011;19909;43.644;-79.438;2023-04-25T10:14:19;0.70;;;0.57;;
33579;SDS011;19909;43.644;-79.438;2023-04-25T10:16:50;0.50;;;0.40;;
33579;SDS011;19909;43.644;-79.438;2023-04-25T10:19:20;0.90;;;0.50;;
33579;SDS011;19909;43.644;-79.438;2023-04-25T10:22:07;0.95;;;0.60;;
33579;SDS011;19909;43.644;-79.438;2023-04-25T10:24:53;1.35;;;0.85;;
33579;SDS011;19909;43.644;-79.438;2023-04-25T10:27:21;0.60;;;0.50;;
33579;SDS011;19909;43.644;-79.438;2023-04-25T10:30:09;0.90;;;0.70;;
33579;SDS011;19909;43.644;-79.438;2023-04-25T10:32:36;0.50;;;0.40;;
33579;SDS011;19909;43.644;-79.438;2023-04-25T10:35:12;0.98;;;0.50;;
33579;SDS011;19909;43.644;-79.438;2023-04-25T10:40:26;0.50;;;0.50;;
33579;SDS011;19909;43.644;-79.438;2023-04-25T10:42:52;0.82;;;0.70;;
33579;SDS011;19909;43.644;-79.438;2023-04-25T10:45:22;1.58;;;0.80;;
33579;SDS011;19909;43.644;-79.438;2023-04-25T10:47:48;0.77;;;0.65;;
33579;SDS011;19909;43.644;-79.438;2023-04-25T10:50:15;0.73;;;0.50;;
33579;SDS011;19909;43.644;-79.438;2023-04-25T10:52:44;1.50;;;0.73;;
33579;SDS011;19909;43.644;-79.438;2023-04-25T10:55:10;0.90;;;0.60;;
33579;SDS011;19909;43.644;-79.438;2023-04-25T11:00:13;0.68;;;0.50;;
33579;SDS011;19909;43.644;-79.438;2023-04-25T11:02:42;0.93;;;0.60;;
33579;SDS011;19909;43.644;-79.438;2023-04-25T11:05:12;0.80;;;0.60;;
33579;SDS011;19909;43.644;-79.438;2023-04-25T11:07:55;0.85;;;0.40;;
33579;SDS011;19909;43.644;-79.438;2023-04-25T11:10:31;0.57;;;0.57;;
33579;SDS011;19909;43.644;-79.438;2023-04-25T11:13:00;1.30;;;0.70;;
33579;SDS011;19909;43.644;-79.438;2023-04-25T11:15:26;2.55;;;0.90;;
33579;SDS011;19909;43.644;-79.438;2023-04-25T11:17:53;1.27;;;0.88;;
33579;SDS011;19909;43.644;-79.438;2023-04-25T11:20:20;1.00;;;0.70;;
33579;SDS011;19909;43.644;-79.438;2023-04-25T11:22:47;0.50;;;0.50;;
33579;SDS011;19909;43.644;-79.438;2023-04-25T11:25:14;0.60;;;0.40;;
33579;SDS011;19909;43.644;-79.438;2023-04-25T11:27:55;0.93;;;0.70;;
33579;SDS011;19909;43.644;-79.438;2023-04-25T11:30:23;1.48;;;0.90;;
33579;SDS011;19909;43.644;-79.438;2023-04-25T11:32:50;2.15;;;0.90;;
33579;SDS011;19909;43.644;-79.438;2023-04-25T11:35:20;1.17;;;0.73;;
33579;SDS011;19909;43.644;-79.438;2023-04-25T11:37:48;2.08;;;1.10;;
33579;SDS011;19909;43.644;-79.438;2023-04-25T11:40:15;1.33;;;0.98;;
33579;SDS011;19909;43.644;-79.438;2023-04-25T11:42:45;1.80;;;0.65;;
33579;SDS011;19909;43.644;-79.438;2023-04-25T11:45:12;0.90;;;0.77;;
33579;SDS011;19909;43.644;-79.438;2023-04-25T11:47:39;1.45;;;0.90;;
33579;SDS011;19909;43.644;-79.438;2023-04-25T11:50:07;0.70;;;0.60;;
33579;SDS011;19909;43.644;-79.438;2023-04-25T11:52:37;1.08;;;0.68;;
33579;SDS011;19909;43.644;-79.438;2023-04-25T11:55:19;1.00;;;0.80;;
33579;SDS011;19909;43.644;-79.438;2023-04-25T11:57:49;1.35;;;0.82;;
33579;SDS011;19909;43.644;-79.438;2023-04-25T12:00:16;0.80;;;0.75;;
33579;SDS011;19909;43.644;-79.438;2023-04-25T12:02:47;1.05;;;0.70;;
33579;SDS011;19909;43.644;-79.438;2023-04-25T12:05:17;1.27;;;0.80;;
33579;SDS011;19909;43.644;-79.438;2023-04-25T12:07:45;0.70;;;0.60;;
33579;SDS011;19909;43.644;-79.438;2023-04-25T12:10:12;1.08;;;0.65;;
33579;SDS011;19909;43.644;-79.438;2023-04-25T12:12:43;1.15;;;0.80;;
33579;SDS011;19909;43.644;-79.438;2023-04-25T12:15:13;1.00;;;0.75;;
33579;SDS011;19909;43.644;-79.438;2023-04-25T12:17:45;1.08;;;0.75;;
33579;SDS011;19909;43.644;-79.438;2023-04-25T12:22:43;1.10;;;0.70;;
33579;SDS011;19909;43.644;-79.438;2023-04-25T12:25:33;1.38;;;0.70;;
33579;SDS011;19909;43.644;-79.438;2023-04-25T12:28:18;1.45;;;0.95;;
33579;SDS011;19909;43.644;-79.438;2023-04-25T12:30:56;1.00;;;0.77;;
33579;SDS011;19909;43.644;-79.438;2023-04-25T12:33:26;1.30;;;0.73;;
33579;SDS011;19909;43.644;-79.438;2023-04-25T12:35:54;1.80;;;0.93;;
33579;SDS011;19909;43.644;-79.438;2023-04-25T12:38:28;1.15;;;0.70;;
33579;SDS011;19909;43.644;-79.438;2023-04-25T12:40:55;3.13;;;0.52;;
33579;SDS011;19909;43.644;-79.438;2023-04-25T12:43:22;1.52;;;0.80;;
33579;SDS011;19909;43.644;-79.438;2023-04-25T12:45:49;1.25;;;1.00;;
33579;SDS011;19909;43.644;-79.438;2023-04-25T12:48:17;3.05;;;1.00;;
33579;SDS011;19909;43.644;-79.438;2023-04-25T12:50:44;1.90;;;0.80;;
33579;SDS011;19909;43.644;-79.438;2023-04-25T12:53:13;1.48;;;0.80;;
33579;SDS011;19909;43.644;-79.438;2023-04-25T12:55:39;1.58;;;0.90;;
33579;SDS011;19909;43.644;-79.438;2023-04-25T12:58:06;1.27;;;0.70;;
33579;SDS011;19909;43.644;-79.438;2023-04-25T13:00:32;0.93;;;0.80;;
33579;SDS011;19909;43.644;-79.438;2023-04-25T13:02:59;1.02;;;0.70;;
33579;SDS011;19909;43.644;-79.438;2023-04-25T13:05:25;1.25;;;0.73;;
33579;SDS011;19909;43.644;-79.438;2023-04-25T13:07:51;2.38;;;0.80;;
33579;SDS011;19909;43.644;-79.438;2023-04-25T13:10:18;1.08;;;0.65;;
33579;SDS011;19909;43.644;-79.438;2023-04-25T13:12:44;0.93;;;0.80;;
33579;SDS011;19909;43.644;-79.438;2023-04-25T13:15:11;0.95;;;0.80;;
33579;SDS011;19909;43.644;-79.438;2023-04-25T13:17:37;1.63;;;0.90;;
33579;SDS011;19909;43.644;-79.438;2023-04-25T13:20:04;1.15;;;0.90;;
33579;SDS011;19909;43.644;-79.438;2023-04-25T13:22:34;1.48;;;0.80;;
33579;SDS011;19909;43.644;-79.438;2023-04-25T13:25:02;1.52;;;0.90;;
33579;SDS011;19909;43.644;-79.438;2023-04-25T13:27:29;0.75;;;0.60;;
33579;SDS011;19909;43.644;-79.438;2023-04-25T13:29:58;1.40;;;0.88;;
33579;SDS011;19909;43.644;-79.438;2023-04-25T13:32:24;1.10;;;0.80;;
33579;SDS011;19909;43.644;-79.438;2023-04-25T13:34:50;1.30;;;0.80;;
33579;SDS011;19909;43.644;-79.438;2023-04-25T13:37:18;1.58;;;0.80;;
33579;SDS011;19909;43.644;-79.438;2023-04-25T13:39:44;1.40;;;0.88;;
33579;SDS011;19909;43.644;-79.438;2023-04-25T13:42:10;1.55;;;0.93;;
33579;SDS011;19909;43.644;-79.438;2023-04-25T13:44:36;1.98;;;1.00;;
33579;SDS011;19909;43.644;-79.438;2023-04-25T13:47:02;1.27;;;0.88;;
33579;SDS011;19909;43.644;-79.438;2023-04-25T13:49:29;1.33;;;0.85;;
33579;SDS011;19909;43.644;-79.438;2023-04-25T13:51:55;1.70;;;1.10;;
33579;SDS011;19909;43.644;-79.438;2023-04-25T13:54:21;1.08;;;0.85;;
33579;SDS011;19909;43.644;-79.438;2023-04-25T13:56:48;2.92;;;1.02;;
33579;SDS011;19909;43.644;-79.438;2023-04-25T13:59:15;1.58;;;0.80;;
33579;SDS011;19909;43.644;-79.438;2023-04-25T14:01:42;1.70;;;0.80;;
33579;SDS011;19909;43.644;-79.438;2023-04-25T14:04:08;1.70;;;0.70;;
33579;SDS011;19909;43.644;-79.438;2023-04-25T14:09:00;0.50;;;0.50;;
33579;SDS011;19909;43.644;-79.438;2023-04-25T14:11:28;1.38;;;0.93;;
33579;SDS011;19909;43.644;-79.438;2023-04-25T14:13:54;1.17;;;0.85;;
33579;SDS011;19909;43.644;-79.438;2023-04-25T14:16:20;0.70;;;0.63;;
33579;SDS011;19909;43.644;-79.438;2023-04-25T14:18:48;2.22;;;0.70;;
33579;SDS011;19909;43.644;-79.438;2023-04-25T14:21:14;2.10;;;0.80;;
33579;SDS011;19909;43.644;-79.438;2023-04-25T14:23:40;1.65;;;0.80;;
33579;SDS011;19909;43.644;-79.438;2023-04-25T14:26:06;2.75;;;0.90;;
33579;SDS011;19909;43.644;-79.438;2023-04-25T14:28:34;1.60;;;0.98;;
33579;SDS011;19909;43.644;-79.438;2023-04-25T14:31:00;1.40;;;0.80;;
33579;SDS011;19909;43.644;-79.438;2023-04-25T14:33:27;1.45;;;0.88;;
33579;SDS011;19909;43.644;-79.438;2023-04-25T14:35:53;1.23;;;0.90;;
33579;SDS011;19909;43.644;-79.438;2023-04-25T14:38:19;1.50;;;0.98;;
33579;SDS011;19909;43.644;-79.438;2023-04-25T14:40:48;1.60;;;0.90;;